sensor_id;sensor_type;location;lat;lon;timestamp;P1;durP1;ratioP1;P2;durP2;ratioP2
74945;SDS011;63509;45.250;38.102;2023-01-15T00:00:49;20.08;;;8.95;;
74945;SDS011;63509;45.250;38.102;2023-01-15T00:03:16;20.13;;;9.75;;
74945;SDS011;63509;45.250;38.102;2023-01-15T00:05:42;20.15;;;8.55;;
74945;SDS011;63509;45.250;38.102;2023-01-15T00:08:08;18.55;;;8.68;;
74945;SDS011;63509;45.250;38.102;2023-01-15T00:10:34;26.90;;;8.48;;
74945;SDS011;63509;45.250;38.102;2023-01-15T00:13:01;19.83;;;9.13;;
74945;SDS011;63509;45.250;38.102;2023-01-15T00:15:27;17.02;;;7.57;;
74945;SDS011;63509;45.250;38.102;2023-01-15T00:17:53;16.33;;;8.70;;
74945;SDS011;63509;45.250;38.102;2023-01-15T00:20:18;17.35;;;8.10;;
74945;SDS011;63509;45.250;38.102;2023-01-15T00:22:44;22.02;;;8.70;;
74945;SDS011;63509;45.250;38.102;2023-01-15T00:25:10;20.33;;;9.23;;
74945;SDS011;63509;45.250;38.102;2023-01-15T00:27:55;20.45;;;9.38;;
74945;SDS011;63509;45.250;38.102;2023-01-15T00:30:21;16.27;;;8.25;;
74945;SDS011;63509;45.250;38.102;2023-01-15T00:32:48;21.05;;;7.95;;
74945;SDS011;63509;45.250;38.102;2023-01-15T00:35:19;29.58;;;8.50;;
74945;SDS011;63509;45.250;38.102;2023-01-15T00:37:48;15.75;;;8.65;;
74945;SDS011;63509;45.250;38.102;2023-01-15T00:40:15;20.75;;;8.50;;
74945;SDS011;63509;45.250;38.102;2023-01-15T00:42:42;19.70;;;9.48;;
74945;SDS011;63509;45.250;38.102;2023-01-15T00:45:08;24.50;;;10.90;;
74945;SDS011;63509;45.250;38.102;2023-01-15T00:47:39;27.35;;;12.27;;
74945;SDS011;63509;45.250;38.102;2023-01-15T00:50:08;26.42;;;13.82;;
74945;SDS011;63509;45.250;38.102;2023-01-15T00:55:01;34.33;;;14.68;;
74945;SDS011;63509;45.250;38.102;2023-01-15T00:57:28;36.67;;;14.73;;
74945;SDS011;63509;45.250;38.102;2023-01-15T00:59:55;42.00;;;17.50;;
74945;SDS011;63509;45.250;38.102;2023-01-15T01:02:21;33.05;;;18.33;;
74945;SDS011;63509;45.250;38.102;2023-01-15T01:04:47;40.10;;;18.27;;
74945;SDS011;63509;45.250;38.102;2023-01-15T01:07:14;46.30;;;19.25;;
74945;SDS011;63509;45.250;38.102;2023-01-15T01:09:40;43.63;;;16.85;;
74945;SDS011;63509;45.250;38.102;2023-01-15T01:12:06;40.28;;;17.65;;
74945;SDS011;63509;45.250;38.102;2023-01-15T01:14:33;45.17;;;18.10;;
74945;SDS011;63509;45.250;38.102;2023-01-15T01:17:01;36.60;;;16.88;;
74945;SDS011;63509;45.250;38.102;2023-01-15T01:19:27;34.70;;;16.85;;
74945;SDS011;63509;45.250;38.102;2023-01-15T01:21:53;35.78;;;18.70;;
74945;SDS011;63509;45.250;38.102;2023-01-15T01:24:20;36.90;;;16.63;;
74945;SDS011;63509;45.250;38.102;2023-01-15T01:26:48;41.60;;;17.55;;
74945;SDS011;63509;45.250;38.102;2023-01-15T01:29:16;43.50;;;18.63;;
74945;SDS011;63509;45.250;38.102;2023-01-15T01:31:45;40.58;;;16.02;;
74945;SDS011;63509;45.250;38.102;2023-01-15T01:34:11;34.65;;;17.05;;
74945;SDS011;63509;45.250;38.102;2023-01-15T01:36:39;33.47;;;15.40;;
74945;SDS011;63509;45.250;38.102;2023-01-15T01:39:07;34.53;;;17.15;;
74945;SDS011;63509;45.250;38.102;2023-01-15T01:41:36;43.95;;;16.83;;
74945;SDS011;63509;45.250;38.102;2023-01-15T01:44:04;41.75;;;16.25;;
74945;SDS011;63509;45.250;38.102;2023-01-15T01:46:53;35.05;;;15.95;;
74945;SDS011;63509;45.250;38.102;2023-01-15T01:49:20;39.03;;;17.77;;
74945;SDS011;63509;45.250;38.102;2023-01-15T01:51:48;40.53;;;15.02;;
74945;SDS011;63509;45.250;38.102;2023-01-15T01:54:18;37.17;;;16.92;;
74945;SDS011;63509;45.250;38.102;2023-01-15T01:56:48;39.78;;;15.18;;
74945;SDS011;63509;45.250;38.102;2023-01-15T01:59:14;35.05;;;16.08;;
74945;SDS011;63509;45.250;38.102;2023-01-15T02:01:42;28.77;;;15.27;;
74945;SDS011;63509;45.250;38.102;2023-01-15T02:04:09;28.23;;;15.15;;
74945;SDS011;63509;45.250;38.102;2023-01-15T02:06:37;41.78;;;13.80;;
74945;SDS011;63509;45.250;38.102;2023-01-15T02:09:06;36.47;;;14.55;;
74945;SDS011;63509;45.250;38.102;2023-01-15T02:11:33;37.28;;;15.93;;
74945;SDS011;63509;45.250;38.102;2023-01-15T02:14:03;31.23;;;13.93;;
74945;SDS011;63509;45.250;38.102;2023-01-15T02:28:00;34.70;;;13.10;;
74945;SDS011;63509;45.250;38.102;2023-01-15T02:30:34;27.95;;;12.45;;
74945;SDS011;63509;45.250;38.102;2023-01-15T02:33:08;24.50;;;11.93;;
74945;SDS011;63509;45.250;38.102;2023-01-15T02:35:54;36.83;;;15.15;;
74945;SDS011;63509;45.250;38.102;2023-01-15T02:38:28;42.72;;;15.80;;
74945;SDS011;63509;45.250;38.102;2023-01-15T02:40:57;41.67;;;16.65;;
74945;SDS011;63509;45.250;38.102;2023-01-15T02:43:26;30.67;;;15.60;;
74945;SDS011;63509;45.250;38.102;2023-01-15T02:45:57;26.67;;;14.63;;
74945;SDS011;63509;45.250;38.102;2023-01-15T02:48:26;27.80;;;12.70;;
74945;SDS011;63509;45.250;38.102;2023-01-15T02:51:06;30.25;;;11.85;;
74945;SDS011;63509;45.250;38.102;2023-01-15T02:53:37;33.58;;;13.50;;
74945;SDS011;63509;45.250;38.102;2023-01-15T02:56:07;31.58;;;13.30;;
74945;SDS011;63509;45.250;38.102;2023-01-15T02:58:43;27.58;;;12.30;;
74945;SDS011;63509;45.250;38.102;2023-01-15T03:01:14;28.60;;;11.80;;
74945;SDS011;63509;45.250;38.102;2023-01-15T03:03:58;22.33;;;9.23;;
74945;SDS011;63509;45.250;38.102;2023-01-15T03:06:33;23.73;;;10.73;;
74945;SDS011;63509;45.250;38.102;2023-01-15T03:09:06;20.05;;;9.85;;
74945;SDS011;63509;45.250;38.102;2023-01-15T03:11:33;19.20;;;8.77;;
74945;SDS011;63509;45.250;38.102;2023-01-15T03:16:42;24.45;;;9.85;;
74945;SDS011;63509;45.250;38.102;2023-01-15T03:24:29;24.35;;;9.98;;
74945;SDS011;63509;45.250;38.102;2023-01-15T03:26:59;16.58;;;8.25;;
74945;SDS011;63509;45.250;38.102;2023-01-15T03:29:27;34.45;;;9.88;;
74945;SDS011;63509;45.250;38.102;2023-01-15T03:31:57;26.52;;;10.57;;
74945;SDS011;63509;45.250;38.102;2023-01-15T03:34:26;19.35;;;7.93;;
74945;SDS011;63509;45.250;38.102;2023-01-15T03:37:02;18.35;;;6.05;;
74945;SDS011;63509;45.250;38.102;2023-01-15T03:39:29;22.20;;;7.10;;
74945;SDS011;63509;45.250;38.102;2023-01-15T03:44:54;25.98;;;7.43;;
74945;SDS011;63509;45.250;38.102;2023-01-15T03:47:40;16.02;;;7.05;;
74945;SDS011;63509;45.250;38.102;2023-01-15T03:50:31;19.13;;;7.47;;
74945;SDS011;63509;45.250;38.102;2023-01-15T03:56:21;22.23;;;9.07;;
74945;SDS011;63509;45.250;38.102;2023-01-15T03:59:16;25.95;;;10.00;;
74945;SDS011;63509;45.250;38.102;2023-01-15T04:02:00;39.60;;;12.48;;
74945;SDS011;63509;45.250;38.102;2023-01-15T04:04:30;33.10;;;11.77;;
74945;SDS011;63509;45.250;38.102;2023-01-15T04:06:58;28.73;;;9.98;;
74945;SDS011;63509;45.250;38.102;2023-01-15T04:09:26;18.33;;;7.57;;
74945;SDS011;63509;45.250;38.102;2023-01-15T04:11:59;25.30;;;9.82;;
74945;SDS011;63509;45.250;38.102;2023-01-15T04:14:29;24.70;;;9.25;;
74945;SDS011;63509;45.250;38.102;2023-01-15T04:16:57;26.10;;;8.60;;
74945;SDS011;63509;45.250;38.102;2023-01-15T04:19:23;23.00;;;9.13;;
74945;SDS011;63509;45.250;38.102;2023-01-15T04:22:02;25.08;;;9.27;;
74945;SDS011;63509;45.250;38.102;2023-01-15T04:24:28;19.85;;;7.53;;
74945;SDS011;63509;45.250;38.102;2023-01-15T04:26:55;25.85;;;7.82;;
74945;SDS011;63509;45.250;38.102;2023-01-15T04:29:21;17.60;;;7.95;;
74945;SDS011;63509;45.250;38.102;2023-01-15T04:31:47;26.15;;;6.85;;
74945;SDS011;63509;45.250;38.102;2023-01-15T04:34:17;27.58;;;6.93;;
74945;SDS011;63509;45.250;38.102;2023-01-15T04:36:43;28.77;;;6.63;;
74945;SDS011;63509;45.250;38.102;2023-01-15T04:39:12;14.82;;;6.10;;
74945;SDS011;63509;45.250;38.102;2023-01-15T04:41:38;20.50;;;6.32;;
74945;SDS011;63509;45.250;38.102;2023-01-15T04:44:22;30.45;;;7.38;;
74945;SDS011;63509;45.250;38.102;2023-01-15T04:46:52;24.05;;;6.95;;
74945;SDS011;63509;45.250;38.102;2023-01-15T04:49:18;21.67;;;6.28;;
74945;SDS011;63509;45.250;38.102;2023-01-15T04:51:45;24.55;;;6.65;;
74945;SDS011;63509;45.250;38.102;2023-01-15T04:54:12;15.88;;;5.95;;
74945;SDS011;63509;45.250;38.102;2023-01-15T04:56:46;17.33;;;7.15;;
74945;SDS011;63509;45.250;38.102;2023-01-15T04:59:15;17.08;;;6.68;;
74945;SDS011;63509;45.250;38.102;2023-01-15T05:01:42;17.02;;;5.78;;
74945;SDS011;63509;45.250;38.102;2023-01-15T05:04:08;20.80;;;6.90;;
74945;SDS011;63509;45.250;38.102;2023-01-15T05:06:35;21.42;;;6.78;;
74945;SDS011;63509;45.250;38.102;2023-01-15T05:09:02;15.50;;;6.30;;
74945;SDS011;63509;45.250;38.102;2023-01-15T05:11:29;28.85;;;7.60;;
74945;SDS011;63509;45.250;38.102;2023-01-15T05:13:56;20.10;;;8.30;;
74945;SDS011;63509;45.250;38.102;2023-01-15T05:16:23;19.77;;;7.80;;
74945;SDS011;63509;45.250;38.102;2023-01-15T05:18:51;24.67;;;9.35;;
74945;SDS011;63509;45.250;38.102;2023-01-15T05:21:23;27.00;;;10.68;;
74945;SDS011;63509;45.250;38.102;2023-01-15T05:23:56;24.75;;;9.52;;
74945;SDS011;63509;45.250;38.102;2023-01-15T05:26:25;23.02;;;9.27;;
74945;SDS011;63509;45.250;38.102;2023-01-15T05:28:52;21.65;;;8.15;;
74945;SDS011;63509;45.250;38.102;2023-01-15T05:31:19;25.92;;;7.82;;
74945;SDS011;63509;45.250;38.102;2023-01-15T05:33:47;18.17;;;6.55;;
74945;SDS011;63509;45.250;38.102;2023-01-15T05:36:15;23.90;;;7.82;;
74945;SDS011;63509;45.250;38.102;2023-01-15T05:38:44;12.40;;;6.03;;
74945;SDS011;63509;45.250;38.102;2023-01-15T05:41:11;20.63;;;5.70;;
74945;SDS011;63509;45.250;38.102;2023-01-15T05:44:04;22.63;;;5.75;;
74945;SDS011;63509;45.250;38.102;2023-01-15T05:46:36;24.95;;;5.97;;
74945;SDS011;63509;45.250;38.102;2023-01-15T05:49:05;20.77;;;6.70;;
74945;SDS011;63509;45.250;38.102;2023-01-15T05:51:34;13.95;;;4.93;;
74945;SDS011;63509;45.250;38.102;2023-01-15T05:54:01;23.42;;;5.88;;
74945;SDS011;63509;45.250;38.102;2023-01-15T05:56:27;23.73;;;5.55;;
74945;SDS011;63509;45.250;38.102;2023-01-15T05:58:53;16.63;;;5.32;;
74945;SDS011;63509;45.250;38.102;2023-01-15T06:01:20;28.95;;;6.55;;
74945;SDS011;63509;45.250;38.102;2023-01-15T06:03:46;15.57;;;5.20;;
74945;SDS011;63509;45.250;38.102;2023-01-15T06:06:14;15.48;;;5.18;;
74945;SDS011;63509;45.250;38.102;2023-01-15T06:08:42;17.85;;;7.03;;
74945;SDS011;63509;45.250;38.102;2023-01-15T06:11:09;23.15;;;6.53;;
74945;SDS011;63509;45.250;38.102;2023-01-15T06:13:36;28.73;;;7.10;;
74945;SDS011;63509;45.250;38.102;2023-01-15T06:16:06;19.30;;;5.65;;
74945;SDS011;63509;45.250;38.102;2023-01-15T06:18:35;15.75;;;5.85;;
74945;SDS011;63509;45.250;38.102;2023-01-15T06:21:03;27.27;;;7.55;;
74945;SDS011;63509;45.250;38.102;2023-01-15T06:23:30;13.45;;;5.88;;
74945;SDS011;63509;45.250;38.102;2023-01-15T06:26:00;36.17;;;7.35;;
74945;SDS011;63509;45.250;38.102;2023-01-15T06:28:27;15.27;;;5.97;;
74945;SDS011;63509;45.250;38.102;2023-01-15T06:30:55;39.10;;;7.00;;
74945;SDS011;63509;45.250;38.102;2023-01-15T06:33:21;25.55;;;5.78;;
74945;SDS011;63509;45.250;38.102;2023-01-15T06:35:47;20.42;;;5.93;;
74945;SDS011;63509;45.250;38.102;2023-01-15T06:38:13;17.48;;;7.05;;
74945;SDS011;63509;45.250;38.102;2023-01-15T06:40:39;25.65;;;6.82;;
74945;SDS011;63509;45.250;38.102;2023-01-15T06:43:05;22.13;;;7.55;;
74945;SDS011;63509;45.250;38.102;2023-01-15T06:45:52;19.60;;;7.15;;
74945;SDS011;63509;45.250;38.102;2023-01-15T06:48:37;20.15;;;7.88;;
74945;SDS011;63509;45.250;38.102;2023-01-15T06:51:03;27.92;;;7.72;;
74945;SDS011;63509;45.250;38.102;2023-01-15T06:53:33;33.42;;;10.13;;
74945;SDS011;63509;45.250;38.102;2023-01-15T06:56:01;25.30;;;8.25;;
74945;SDS011;63509;45.250;38.102;2023-01-15T06:58:27;31.10;;;9.43;;
74945;SDS011;63509;45.250;38.102;2023-01-15T07:00:53;20.50;;;7.80;;
74945;SDS011;63509;45.250;38.102;2023-01-15T07:03:26;16.02;;;7.38;;
74945;SDS011;63509;45.250;38.102;2023-01-15T07:05:54;23.45;;;7.72;;
74945;SDS011;63509;45.250;38.102;2023-01-15T07:08:21;24.75;;;7.25;;
74945;SDS011;63509;45.250;38.102;2023-01-15T07:10:47;16.35;;;6.40;;
74945;SDS011;63509;45.250;38.102;2023-01-15T07:13:13;16.50;;;5.75;;
74945;SDS011;63509;45.250;38.102;2023-01-15T07:15:39;22.38;;;6.15;;
74945;SDS011;63509;45.250;38.102;2023-01-15T07:18:07;20.45;;;6.25;;
74945;SDS011;63509;45.250;38.102;2023-01-15T07:20:33;20.27;;;7.03;;
74945;SDS011;63509;45.250;38.102;2023-01-15T07:23:00;20.30;;;6.38;;
74945;SDS011;63509;45.250;38.102;2023-01-15T07:25:27;19.85;;;5.80;;
74945;SDS011;63509;45.250;38.102;2023-01-15T07:27:53;27.27;;;6.65;;
74945;SDS011;63509;45.250;38.102;2023-01-15T07:30:19;16.70;;;5.90;;
74945;SDS011;63509;45.250;38.102;2023-01-15T07:32:46;19.75;;;6.13;;
74945;SDS011;63509;45.250;38.102;2023-01-15T07:35:13;21.65;;;5.45;;
74945;SDS011;63509;45.250;38.102;2023-01-15T07:37:39;19.45;;;6.90;;
74945;SDS011;63509;45.250;38.102;2023-01-15T07:40:08;18.50;;;6.05;;
74945;SDS011;63509;45.250;38.102;2023-01-15T07:42:35;16.92;;;5.95;;
74945;SDS011;63509;45.250;38.102;2023-01-15T07:45:20;10.65;;;5.10;;
74945;SDS011;63509;45.250;38.102;2023-01-15T07:48:07;24.52;;;6.00;;
74945;SDS011;63509;45.250;38.102;2023-01-15T07:50:53;28.85;;;5.70;;
74945;SDS011;63509;45.250;38.102;2023-01-15T07:53:19;15.30;;;5.22;;
74945;SDS011;63509;45.250;38.102;2023-01-15T07:55:45;20.63;;;5.40;;
74945;SDS011;63509;45.250;38.102;2023-01-15T07:58:12;12.82;;;5.35;;
74945;SDS011;63509;45.250;38.102;2023-01-15T08:00:38;27.20;;;7.47;;
74945;SDS011;63509;45.250;38.102;2023-01-15T08:03:04;21.27;;;6.57;;
74945;SDS011;63509;45.250;38.102;2023-01-15T08:05:30;20.38;;;6.63;;
74945;SDS011;63509;45.250;38.102;2023-01-15T08:07:57;19.02;;;6.28;;
74945;SDS011;63509;45.250;38.102;2023-01-15T08:10:28;23.67;;;6.85;;
74945;SDS011;63509;45.250;38.102;2023-01-15T08:12:55;26.10;;;6.13;;
74945;SDS011;63509;45.250;38.102;2023-01-15T08:15:40;12.88;;;4.75;;
74945;SDS011;63509;45.250;38.102;2023-01-15T08:20:35;23.20;;;6.35;;
74945;SDS011;63509;45.250;38.102;2023-01-15T08:23:03;18.33;;;5.47;;
74945;SDS011;63509;45.250;38.102;2023-01-15T08:25:29;19.33;;;5.75;;
74945;SDS011;63509;45.250;38.102;2023-01-15T08:27:59;11.73;;;5.63;;
74945;SDS011;63509;45.250;38.102;2023-01-15T08:30:27;19.00;;;6.53;;
74945;SDS011;63509;45.250;38.102;2023-01-15T08:32:58;19.65;;;6.40;;
74945;SDS011;63509;45.250;38.102;2023-01-15T08:35:26;24.23;;;7.25;;
74945;SDS011;63509;45.250;38.102;2023-01-15T08:37:53;16.38;;;6.57;;
74945;SDS011;63509;45.250;38.102;2023-01-15T08:40:20;17.48;;;6.72;;
74945;SDS011;63509;45.250;38.102;2023-01-15T08:42:46;17.52;;;5.75;;
74945;SDS011;63509;45.250;38.102;2023-01-15T08:45:13;22.42;;;5.97;;
74945;SDS011;63509;45.250;38.102;2023-01-15T08:47:43;21.05;;;7.07;;
74945;SDS011;63509;45.250;38.102;2023-01-15T08:50:10;16.75;;;5.75;;
74945;SDS011;63509;45.250;38.102;2023-01-15T08:52:37;19.58;;;6.97;;
74945;SDS011;63509;45.250;38.102;2023-01-15T08:55:04;21.48;;;6.47;;
74945;SDS011;63509;45.250;38.102;2023-01-15T08:57:31;16.52;;;5.90;;
74945;SDS011;63509;45.250;38.102;2023-01-15T08:59:58;16.38;;;6.43;;
74945;SDS011;63509;45.250;38.102;2023-01-15T09:02:25;16.13;;;6.10;;
74945;SDS011;63509;45.250;38.102;2023-01-15T09:04:52;25.15;;;6.60;;
74945;SDS011;63509;45.250;38.102;2023-01-15T09:07:18;14.80;;;6.00;;
74945;SDS011;63509;45.250;38.102;2023-01-15T09:09:45;21.60;;;6.57;;
74945;SDS011;63509;45.250;38.102;2023-01-15T09:12:11;16.15;;;6.18;;
74945;SDS011;63509;45.250;38.102;2023-01-15T09:14:38;17.50;;;6.13;;
74945;SDS011;63509;45.250;38.102;2023-01-15T09:17:04;13.80;;;5.10;;
74945;SDS011;63509;45.250;38.102;2023-01-15T09:19:35;16.25;;;5.05;;
74945;SDS011;63509;45.250;38.102;2023-01-15T09:22:01;17.77;;;4.63;;
74945;SDS011;63509;45.250;38.102;2023-01-15T09:24:28;10.30;;;4.35;;
74945;SDS011;63509;45.250;38.102;2023-01-15T09:26:54;13.95;;;5.28;;
74945;SDS011;63509;45.250;38.102;2023-01-15T09:29:21;15.65;;;5.50;;
74945;SDS011;63509;45.250;38.102;2023-01-15T09:31:47;11.02;;;4.28;;
74945;SDS011;63509;45.250;38.102;2023-01-15T09:34:13;9.93;;;4.10;;
74945;SDS011;63509;45.250;38.102;2023-01-15T09:36:39;11.68;;;4.78;;
74945;SDS011;63509;45.250;38.102;2023-01-15T09:39:06;12.57;;;4.28;;
74945;SDS011;63509;45.250;38.102;2023-01-15T09:55:25;12.15;;;4.35;;
74945;SDS011;63509;45.250;38.102;2023-01-15T09:57:58;12.85;;;5.57;;
74945;SDS011;63509;45.250;38.102;2023-01-15T10:00:28;19.65;;;4.55;;
74945;SDS011;63509;45.250;38.102;2023-01-15T10:06:06;10.52;;;4.90;;
74945;SDS011;63509;45.250;38.102;2023-01-15T10:08:46;11.18;;;4.13;;
74945;SDS011;63509;45.250;38.102;2023-01-15T10:13:59;11.32;;;4.10;;
74945;SDS011;63509;45.250;38.102;2023-01-15T10:16:31;12.48;;;4.85;;
74945;SDS011;63509;45.250;38.102;2023-01-15T10:19:01;9.60;;;3.25;;
74945;SDS011;63509;45.250;38.102;2023-01-15T10:27:10;8.88;;;3.55;;
74945;SDS011;63509;45.250;38.102;2023-01-15T10:30:22;11.25;;;3.20;;
74945;SDS011;63509;45.250;38.102;2023-01-15T10:32:56;8.13;;;3.33;;
74945;SDS011;63509;45.250;38.102;2023-01-15T10:46:24;13.95;;;6.75;;
74945;SDS011;63509;45.250;38.102;2023-01-15T10:48:56;20.95;;;5.32;;
74945;SDS011;63509;45.250;38.102;2023-01-15T10:51:29;21.95;;;6.82;;
74945;SDS011;63509;45.250;38.102;2023-01-15T10:54:19;18.27;;;6.28;;
74945;SDS011;63509;45.250;38.102;2023-01-15T10:57:13;18.40;;;5.05;;
74945;SDS011;63509;45.250;38.102;2023-01-15T10:59:56;13.82;;;5.47;;
74945;SDS011;63509;45.250;38.102;2023-01-15T11:02:34;12.75;;;5.60;;
74945;SDS011;63509;45.250;38.102;2023-01-15T11:05:05;10.50;;;4.75;;
74945;SDS011;63509;45.250;38.102;2023-01-15T11:07:38;34.85;;;10.20;;
74945;SDS011;63509;45.250;38.102;2023-01-15T11:10:09;12.98;;;5.13;;
74945;SDS011;63509;45.250;38.102;2023-01-15T11:12:42;27.25;;;8.70;;
74945;SDS011;63509;45.250;38.102;2023-01-15T11:15:36;19.15;;;6.25;;
74945;SDS011;63509;45.250;38.102;2023-01-15T11:18:24;14.18;;;4.45;;
74945;SDS011;63509;45.250;38.102;2023-01-15T11:21:12;10.20;;;4.63;;
74945;SDS011;63509;45.250;38.102;2023-01-15T11:23:41;12.90;;;5.45;;
74945;SDS011;63509;45.250;38.102;2023-01-15T11:26:08;17.52;;;6.25;;
74945;SDS011;63509;45.250;38.102;2023-01-15T11:28:41;17.08;;;5.53;;
74945;SDS011;63509;45.250;38.102;2023-01-15T11:31:09;23.10;;;7.03;;
74945;SDS011;63509;45.250;38.102;2023-01-15T11:33:36;14.75;;;5.88;;
74945;SDS011;63509;45.250;38.102;2023-01-15T11:36:04;17.27;;;5.68;;
74945;SDS011;63509;45.250;38.102;2023-01-15T11:38:43;18.05;;;6.05;;
74945;SDS011;63509;45.250;38.102;2023-01-15T11:41:21;11.73;;;5.13;;
74945;SDS011;63509;45.250;38.102;2023-01-15T11:44:11;17.98;;;7.13;;
74945;SDS011;63509;45.250;38.102;2023-01-15T11:46:57;28.20;;;10.43;;
74945;SDS011;63509;45.250;38.102;2023-01-15T11:49:59;13.07;;;4.80;;
74945;SDS011;63509;45.250;38.102;2023-01-15T11:52:49;14.32;;;5.28;;
74945;SDS011;63509;45.250;38.102;2023-01-15T11:57:46;26.65;;;9.73;;
74945;SDS011;63509;45.250;38.102;2023-01-15T12:00:24;26.02;;;11.25;;
74945;SDS011;63509;45.250;38.102;2023-01-15T12:02:53;25.98;;;9.25;;
74945;SDS011;63509;45.250;38.102;2023-01-15T12:05:33;26.02;;;8.95;;
74945;SDS011;63509;45.250;38.102;2023-01-15T12:08:02;27.27;;;10.88;;
74945;SDS011;63509;45.250;38.102;2023-01-15T12:11:18;22.67;;;8.90;;
74945;SDS011;63509;45.250;38.102;2023-01-15T12:19:24;18.30;;;7.55;;
74945;SDS011;63509;45.250;38.102;2023-01-15T12:30:24;28.02;;;9.48;;
74945;SDS011;63509;45.250;38.102;2023-01-15T12:33:12;22.05;;;9.43;;
74945;SDS011;63509;45.250;38.102;2023-01-15T12:35:56;21.17;;;8.82;;
74945;SDS011;63509;45.250;38.102;2023-01-15T12:41:25;21.35;;;7.60;;
74945;SDS011;63509;45.250;38.102;2023-01-15T12:44:17;19.05;;;7.90;;
74945;SDS011;63509;45.250;38.102;2023-01-15T12:47:05;32.10;;;6.80;;
74945;SDS011;63509;45.250;38.102;2023-01-15T12:49:42;24.58;;;7.70;;
74945;SDS011;63509;45.250;38.102;2023-01-15T12:52:16;21.10;;;6.80;;
74945;SDS011;63509;45.250;38.102;2023-01-15T12:54:56;34.42;;;11.27;;
74945;SDS011;63509;45.250;38.102;2023-01-15T12:57:39;20.63;;;8.13;;
74945;SDS011;63509;45.250;38.102;2023-01-15T13:08:16;25.02;;;7.45;;
74945;SDS011;63509;45.250;38.102;2023-01-15T13:10:44;18.10;;;9.40;;
74945;SDS011;63509;45.250;38.102;2023-01-15T13:13:18;26.30;;;8.13;;
74945;SDS011;63509;45.250;38.102;2023-01-15T13:20:57;13.88;;;4.90;;
74945;SDS011;63509;45.250;38.102;2023-01-15T13:36:57;13.25;;;3.83;;
74945;SDS011;63509;45.250;38.102;2023-01-15T13:39:33;12.23;;;3.90;;
74945;SDS011;63509;45.250;38.102;2023-01-15T13:44:50;11.75;;;3.95;;
74945;SDS011;63509;45.250;38.102;2023-01-15T13:47:22;17.90;;;5.63;;
74945;SDS011;63509;45.250;38.102;2023-01-15T13:49:51;25.90;;;6.60;;
74945;SDS011;63509;45.250;38.102;2023-01-15T13:52:33;16.95;;;5.93;;
74945;SDS011;63509;45.250;38.102;2023-01-15T13:55:23;16.65;;;5.32;;
74945;SDS011;63509;45.250;38.102;2023-01-15T13:57:56;18.90;;;5.05;;
74945;SDS011;63509;45.250;38.102;2023-01-15T14:02:59;16.85;;;4.82;;
74945;SDS011;63509;45.250;38.102;2023-01-15T14:05:29;18.90;;;5.85;;
74945;SDS011;63509;45.250;38.102;2023-01-15T14:07:58;17.60;;;5.72;;
74945;SDS011;63509;45.250;38.102;2023-01-15T14:15:46;19.40;;;8.85;;
74945;SDS011;63509;45.250;38.102;2023-01-15T14:26:26;14.55;;;3.60;;
74945;SDS011;63509;45.250;38.102;2023-01-15T14:29:25;9.85;;;3.42;;
74945;SDS011;63509;45.250;38.102;2023-01-15T14:34:42;14.48;;;4.72;;
74945;SDS011;63509;45.250;38.102;2023-01-15T14:40:20;10.80;;;3.78;;
74945;SDS011;63509;45.250;38.102;2023-01-15T14:42:55;17.88;;;3.28;;
74945;SDS011;63509;45.250;38.102;2023-01-15T14:45:27;10.55;;;2.92;;
74945;SDS011;63509;45.250;38.102;2023-01-15T14:47:57;22.00;;;3.92;;
74945;SDS011;63509;45.250;38.102;2023-01-15T14:50:42;12.05;;;3.05;;
74945;SDS011;63509;45.250;38.102;2023-01-15T14:58:43;8.13;;;3.15;;
74945;SDS011;63509;45.250;38.102;2023-01-15T15:03:55;12.07;;;3.63;;
74945;SDS011;63509;45.250;38.102;2023-01-15T15:12:34;7.32;;;3.13;;
74945;SDS011;63509;45.250;38.102;2023-01-15T15:26:03;8.13;;;2.70;;
74945;SDS011;63509;45.250;38.102;2023-01-15T15:28:30;12.50;;;2.95;;
74945;SDS011;63509;45.250;38.102;2023-01-15T15:30:57;16.50;;;3.63;;
74945;SDS011;63509;45.250;38.102;2023-01-15T15:33:28;17.13;;;3.90;;
74945;SDS011;63509;45.250;38.102;2023-01-15T15:36:03;11.68;;;3.60;;
74945;SDS011;63509;45.250;38.102;2023-01-15T15:38:30;14.25;;;3.08;;
74945;SDS011;63509;45.250;38.102;2023-01-15T15:41:01;7.70;;;3.42;;
74945;SDS011;63509;45.250;38.102;2023-01-15T15:43:39;24.35;;;4.18;;
74945;SDS011;63509;45.250;38.102;2023-01-15T15:46:34;20.38;;;3.50;;
74945;SDS011;63509;45.250;38.102;2023-01-15T15:49:19;11.57;;;2.70;;
74945;SDS011;63509;45.250;38.102;2023-01-15T15:51:46;27.90;;;7.82;;
74945;SDS011;63509;45.250;38.102;2023-01-15T15:57:00;14.77;;;5.25;;
74945;SDS011;63509;45.250;38.102;2023-01-15T15:59:37;15.82;;;6.97;;
74945;SDS011;63509;45.250;38.102;2023-01-15T16:02:15;27.73;;;8.90;;
74945;SDS011;63509;45.250;38.102;2023-01-15T16:04:53;25.40;;;6.50;;
74945;SDS011;63509;45.250;38.102;2023-01-15T16:10:03;14.73;;;5.53;;
74945;SDS011;63509;45.250;38.102;2023-01-15T16:12:46;18.98;;;5.93;;
74945;SDS011;63509;45.250;38.102;2023-01-15T16:15:17;9.95;;;3.47;;
74945;SDS011;63509;45.250;38.102;2023-01-15T16:17:46;22.02;;;3.95;;
74945;SDS011;63509;45.250;38.102;2023-01-15T16:20:15;14.00;;;3.75;;
74945;SDS011;63509;45.250;38.102;2023-01-15T16:22:44;11.20;;;2.83;;
74945;SDS011;63509;45.250;38.102;2023-01-15T16:25:20;13.02;;;3.30;;
74945;SDS011;63509;45.250;38.102;2023-01-15T16:27:49;9.80;;;4.05;;
74945;SDS011;63509;45.250;38.102;2023-01-15T16:30:15;19.05;;;3.72;;
74945;SDS011;63509;45.250;38.102;2023-01-15T16:32:44;20.13;;;3.35;;
74945;SDS011;63509;45.250;38.102;2023-01-15T16:35:14;8.63;;;2.05;;
74945;SDS011;63509;45.250;38.102;2023-01-15T16:37:54;10.35;;;2.78;;
74945;SDS011;63509;45.250;38.102;2023-01-15T16:40:27;11.80;;;3.00;;
74945;SDS011;63509;45.250;38.102;2023-01-15T16:43:01;15.50;;;3.97;;
74945;SDS011;63509;45.250;38.102;2023-01-15T16:45:31;12.60;;;3.65;;
74945;SDS011;63509;45.250;38.102;2023-01-15T16:48:08;15.00;;;3.72;;
74945;SDS011;63509;45.250;38.102;2023-01-15T16:50:40;14.52;;;3.60;;
74945;SDS011;63509;45.250;38.102;2023-01-15T16:53:28;8.35;;;2.97;;
74945;SDS011;63509;45.250;38.102;2023-01-15T16:56:05;10.18;;;3.17;;
74945;SDS011;63509;45.250;38.102;2023-01-15T17:01:51;10.55;;;3.85;;
74945;SDS011;63509;45.250;38.102;2023-01-15T17:09:51;25.55;;;3.92;;
74945;SDS011;63509;45.250;38.102;2023-01-15T17:12:24;12.63;;;3.55;;
74945;SDS011;63509;45.250;38.102;2023-01-15T17:17:40;19.52;;;3.83;;
74945;SDS011;63509;45.250;38.102;2023-01-15T17:20:10;15.00;;;3.20;;
74945;SDS011;63509;45.250;38.102;2023-01-15T17:22:38;24.83;;;3.72;;
74945;SDS011;63509;45.250;38.102;2023-01-15T17:27:51;18.70;;;3.20;;
74945;SDS011;63509;45.250;38.102;2023-01-15T17:30:19;18.42;;;3.50;;
74945;SDS011;63509;45.250;38.102;2023-01-15T17:32:46;17.45;;;4.22;;
74945;SDS011;63509;45.250;38.102;2023-01-15T17:35:23;23.90;;;3.63;;
74945;SDS011;63509;45.250;38.102;2023-01-15T17:37:51;12.00;;;3.38;;
74945;SDS011;63509;45.250;38.102;2023-01-15T17:40:18;12.68;;;3.17;;
74945;SDS011;63509;45.250;38.102;2023-01-15T17:42:45;11.65;;;3.58;;
74945;SDS011;63509;45.250;38.102;2023-01-15T17:45:22;22.35;;;3.08;;
74945;SDS011;63509;45.250;38.102;2023-01-15T17:47:51;23.45;;;3.72;;